sensor_id;sensor_type;location;lat;lon;timestamp;pressure;altitude;pressure_sealevel;temperature;humidity
16664;BME280;8445;51.270;9.434;2022-07-29T00:00:55;99578.66;;;20.49;nan
16664;BME280;8445;51.270;9.434;2022-07-29T00:03:20;99569.38;;;20.59;nan
16664;BME280;8445;51.270;9.434;2022-07-29T00:05:46;99576.94;;;20.56;nan
16664;BME280;8445;51.270;9.434;2022-07-29T00:08:12;99575.81;;;20.50;nan
16664;BME280;8445;51.270;9.434;2022-07-29T00:10:38;99568.16;;;20.62;nan
16664;BME280;8445;51.270;9.434;2022-07-29T00:13:04;99568.34;;;20.61;nan
16664;BME280;8445;51.270;9.434;2022-07-29T00:15:30;99567.81;;;20.65;nan
16664;BME280;8445;51.270;9.434;2022-07-29T00:17:56;99562.31;;;20.58;nan
16664;BME280;8445;51.270;9.434;2022-07-29T00:20:22;99566.38;;;20.54;nan
16664;BME280;8445;51.270;9.434;2022-07-29T00:22:48;99557.31;;;20.55;nan
16664;BME280;8445;51.270;9.434;2022-07-29T00:25:14;99553.97;;;20.53;nan
16664;BME280;8445;51.270;9.434;2022-07-29T00:27:39;99548.59;;;20.53;nan
16664;BME280;8445;51.270;9.434;2022-07-29T00:30:06;99547.31;;;20.41;nan
16664;BME280;8445;51.270;9.434;2022-07-29T00:32:33;99540.91;;;20.42;nan
16664;BME280;8445;51.270;9.434;2022-07-29T00:34:59;99532.50;;;20.45;nan
16664;BME280;8445;51.270;9.434;2022-07-29T00:37:44;99534.69;;;20.41;nan
16664;BME280;8445;51.270;9.434;2022-07-29T00:40:10;99527.78;;;20.47;nan
16664;BME280;8445;51.270;9.434;2022-07-29T00:42:48;99527.78;;;20.47;nan
16664;BME280;8445;51.270;9.434;2022-07-29T00:45:16;99530.03;;;20.35;nan
16664;BME280;8445;51.270;9.434;2022-07-29T00:47:43;99522.47;;;20.39;nan
16664;BME280;8445;51.270;9.434;2022-07-29T00:50:11;99520.47;;;20.33;nan
16664;BME280;8445;51.270;9.434;2022-07-29T00:52:39;99517.50;;;20.27;nan
16664;BME280;8445;51.270;9.434;2022-07-29T00:55:10;99519.50;;;20.25;nan
16664;BME280;8445;51.270;9.434;2022-07-29T00:57:37;99524.06;;;20.25;nan
16664;BME280;8445;51.270;9.434;2022-07-29T01:00:05;99519.88;;;20.22;nan
16664;BME280;8445;51.270;9.434;2022-07-29T01:02:32;99519.88;;;20.22;nan
16664;BME280;8445;51.270;9.434;2022-07-29T01:04:58;99512.34;;;20.18;nan
16664;BME280;8445;51.270;9.434;2022-07-29T01:07:30;99508.50;;;20.12;nan
16664;BME280;8445;51.270;9.434;2022-07-29T01:09:58;99517.97;;;19.99;nan
16664;BME280;8445;51.270;9.434;2022-07-29T01:12:30;99501.34;;;20.04;nan
16664;BME280;8445;51.270;9.434;2022-07-29T01:15:01;99505.56;;;19.98;nan
16664;BME280;8445;51.270;9.434;2022-07-29T01:17:43;99498.00;;;20.02;nan
16664;BME280;8445;51.270;9.434;2022-07-29T01:20:32;99507.09;;;19.93;nan
16664;BME280;8445;51.270;9.434;2022-07-29T01:26:31;99495.34;;;19.94;nan
16664;BME280;8445;51.270;9.434;2022-07-29T01:37:39;99499.03;;;19.93;nan
16664;BME280;8445;51.270;9.434;2022-07-29T01:40:27;99492.66;;;19.85;nan
16664;BME280;8445;51.270;9.434;2022-07-29T01:43:09;99485.13;;;19.81;nan
16664;BME280;8445;51.270;9.434;2022-07-29T01:45:43;99484.13;;;19.82;nan
16664;BME280;8445;51.270;9.434;2022-07-29T01:48:31;99479.44;;;19.84;nan
16664;BME280;8445;51.270;9.434;2022-07-29T01:51:18;99475.75;;;19.77;nan
16664;BME280;8445;51.270;9.434;2022-07-29T01:54:39;99477.13;;;19.73;nan
16664;BME280;8445;51.270;9.434;2022-07-29T01:56:40;99474.31;;;19.58;nan
16664;BME280;8445;51.270;9.434;2022-07-29T01:59:10;99470.66;;;19.50;nan
16664;BME280;8445;51.270;9.434;2022-07-29T02:01:39;99472.34;;;19.43;nan
16664;BME280;8445;51.270;9.434;2022-07-29T02:04:09;99476.03;;;19.42;nan
16664;BME280;8445;51.270;9.434;2022-07-29T02:06:40;99471.81;;;19.48;nan
16664;BME280;8445;51.270;9.434;2022-07-29T02:09:10;99468.53;;;19.37;nan
16664;BME280;8445;51.270;9.434;2022-07-29T02:11:38;99472.38;;;19.35;nan
16664;BME280;8445;51.270;9.434;2022-07-29T02:14:07;99470.22;;;19.30;nan
16664;BME280;8445;51.270;9.434;2022-07-29T02:16:37;99467.56;;;19.22;nan
16664;BME280;8445;51.270;9.434;2022-07-29T02:19:06;99460.53;;;19.13;nan
16664;BME280;8445;51.270;9.434;2022-07-29T02:21:35;99468.38;;;19.22;nan
16664;BME280;8445;51.270;9.434;2022-07-29T02:24:04;99462.19;;;19.22;nan
16664;BME280;8445;51.270;9.434;2022-07-29T02:26:32;99464.19;;;19.20;nan
16664;BME280;8445;51.270;9.434;2022-07-29T02:29:01;99462.00;;;19.23;nan
16664;BME280;8445;51.270;9.434;2022-07-29T02:31:33;99468.22;;;19.24;nan
16664;BME280;8445;51.270;9.434;2022-07-29T02:34:03;99470.91;;;19.16;nan
16664;BME280;8445;51.270;9.434;2022-07-29T02:36:32;99474.94;;;19.20;nan
16664;BME280;8445;51.270;9.434;2022-07-29T02:39:01;99469.25;;;19.15;nan
16664;BME280;8445;51.270;9.434;2022-07-29T02:41:33;99461.19;;;19.15;nan
16664;BME280;8445;51.270;9.434;2022-07-29T02:44:10;99463.53;;;19.18;nan
16664;BME280;8445;51.270;9.434;2022-07-29T02:46:43;99457.03;;;19.04;nan
16664;BME280;8445;51.270;9.434;2022-07-29T02:51:55;99453.00;;;19.00;nan
16664;BME280;8445;51.270;9.434;2022-07-29T02:54:39;99449.66;;;19.06;nan
16664;BME280;8445;51.270;9.434;2022-07-29T02:57:21;99454.19;;;18.97;nan
16664;BME280;8445;51.270;9.434;2022-07-29T02:59:51;99452.81;;;18.93;nan
16664;BME280;8445;51.270;9.434;2022-07-29T03:02:20;99457.00;;;18.87;nan
16664;BME280;8445;51.270;9.434;2022-07-29T03:04:47;99459.84;;;18.86;nan
16664;BME280;8445;51.270;9.434;2022-07-29T03:07:18;99454.84;;;18.83;nan
16664;BME280;8445;51.270;9.434;2022-07-29T03:09:46;99454.16;;;18.89;nan
16664;BME280;8445;51.270;9.434;2022-07-29T03:12:14;99449.13;;;18.86;nan
16664;BME280;8445;51.270;9.434;2022-07-29T03:14:41;99449.50;;;18.74;nan
16664;BME280;8445;51.270;9.434;2022-07-29T03:17:09;99452.16;;;18.74;nan
16664;BME280;8445;51.270;9.434;2022-07-29T03:19:36;99446.81;;;18.74;nan
16664;BME280;8445;51.270;9.434;2022-07-29T03:22:02;99450.66;;;18.63;nan
16664;BME280;8445;51.270;9.434;2022-07-29T03:24:36;99447.81;;;18.65;nan
16664;BME280;8445;51.270;9.434;2022-07-29T03:27:04;99448.81;;;18.56;nan
16664;BME280;8445;51.270;9.434;2022-07-29T03:29:31;99446.47;;;18.52;nan
16664;BME280;8445;51.270;9.434;2022-07-29T03:31:57;99446.66;;;18.51;nan
16664;BME280;8445;51.270;9.434;2022-07-29T03:34:23;99445.13;;;18.48;nan
16664;BME280;8445;51.270;9.434;2022-07-29T03:36:49;99438.75;;;18.49;nan
16664;BME280;8445;51.270;9.434;2022-07-29T03:39:21;99443.78;;;18.52;nan
16664;BME280;8445;51.270;9.434;2022-07-29T03:41:50;99451.00;;;18.52;nan
16664;BME280;8445;51.270;9.434;2022-07-29T03:44:19;99458.53;;;18.57;nan
16664;BME280;8445;51.270;9.434;2022-07-29T03:46:49;99451.16;;;18.50;nan
16664;BME280;8445;51.270;9.434;2022-07-29T03:49:40;99451.84;;;18.61;nan
16664;BME280;8445;51.270;9.434;2022-07-29T03:52:43;99457.38;;;18.51;nan
16664;BME280;8445;51.270;9.434;2022-07-29T03:55:09;99468.72;;;18.61;nan
16664;BME280;8445;51.270;9.434;2022-07-29T03:57:37;99475.63;;;18.72;nan
16664;BME280;8445;51.270;9.434;2022-07-29T04:00:07;99481.66;;;18.83;nan
16664;BME280;8445;51.270;9.434;2022-07-29T04:02:35;99480.13;;;18.88;nan
16664;BME280;8445;51.270;9.434;2022-07-29T04:05:01;99473.78;;;18.98;nan
16664;BME280;8445;51.270;9.434;2022-07-29T04:07:27;99466.75;;;19.13;nan
16664;BME280;8445;51.270;9.434;2022-07-29T04:09:53;99466.53;;;19.23;nan
16664;BME280;8445;51.270;9.434;2022-07-29T04:12:19;99461.31;;;19.30;nan
16664;BME280;8445;51.270;9.434;2022-07-29T04:14:46;99460.16;;;19.32;nan
16664;BME280;8445;51.270;9.434;2022-07-29T04:17:12;99465.19;;;19.35;nan
16664;BME280;8445;51.270;9.434;2022-07-29T04:19:38;99456.13;;;19.36;nan
16664;BME280;8445;51.270;9.434;2022-07-29T04:22:04;99454.25;;;19.37;nan
16664;BME280;8445;51.270;9.434;2022-07-29T04:24:30;99455.59;;;19.41;nan
16664;BME280;8445;51.270;9.434;2022-07-29T04:26:56;99461.81;;;19.42;nan
16664;BME280;8445;51.270;9.434;2022-07-29T04:29:21;99459.81;;;19.35;nan
16664;BME280;8445;51.270;9.434;2022-07-29T04:31:47;99464.66;;;19.32;nan
16664;BME280;8445;51.270;9.434;2022-07-29T04:34:13;99461.31;;;19.30;nan
16664;BME280;8445;51.270;9.434;2022-07-29T04:36:39;99465.53;;;19.32;nan
16664;BME280;8445;51.270;9.434;2022-07-29T04:39:05;99468.53;;;19.37;nan
16664;BME280;8445;51.270;9.434;2022-07-29T04:41:31;99469.66;;;19.43;nan
16664;BME280;8445;51.270;9.434;2022-07-29T04:43:57;99471.16;;;19.46;nan
16664;BME280;8445;51.270;9.434;2022-07-29T04:46:26;99477.84;;;19.50;nan
16664;BME280;8445;51.270;9.434;2022-07-29T04:48:52;99483.88;;;19.60;nan
16664;BME280;8445;51.270;9.434;2022-07-29T04:51:18;99481.50;;;19.65;nan
16664;BME280;8445;51.270;9.434;2022-07-29T04:53:44;99481.81;;;19.70;nan
16664;BME280;8445;51.270;9.434;2022-07-29T04:56:09;99472.72;;;19.80;nan
16664;BME280;8445;51.270;9.434;2022-07-29T04:58:36;99473.38;;;19.90;nan
16664;BME280;8445;51.270;9.434;2022-07-29T05:01:03;99469.16;;;19.88;nan
16664;BME280;8445;51.270;9.434;2022-07-29T05:03:31;99461.09;;;19.96;nan
16664;BME280;8445;51.270;9.434;2022-07-29T05:05:57;99456.16;;;20.08;nan
16664;BME280;8445;51.270;9.434;2022-07-29T05:08:23;99465.38;;;20.13;nan
16664;BME280;8445;51.270;9.434;2022-07-29T05:10:48;99461.00;;;20.12;nan
16664;BME280;8445;51.270;9.434;2022-07-29T05:13:14;99466.19;;;20.14;nan
16664;BME280;8445;51.270;9.434;2022-07-29T05:15:40;99463.81;;;20.19;nan
16664;BME280;8445;51.270;9.434;2022-07-29T05:18:06;99456.72;;;20.26;nan
16664;BME280;8445;51.270;9.434;2022-07-29T05:20:32;99459.72;;;20.32;nan
16664;BME280;8445;51.270;9.434;2022-07-29T05:23:01;99459.34;;;20.35;nan
16664;BME280;8445;51.270;9.434;2022-07-29T05:25:28;99459.81;;;20.38;nan
16664;BME280;8445;51.270;9.434;2022-07-29T05:27:55;99458.66;;;20.41;nan
16664;BME280;8445;51.270;9.434;2022-07-29T05:30:21;99459.97;;;20.45;nan
16664;BME280;8445;51.270;9.434;2022-07-29T05:32:48;99451.59;;;20.40;nan
16664;BME280;8445;51.270;9.434;2022-07-29T05:35:15;99453.63;;;20.38;nan
16664;BME280;8445;51.270;9.434;2022-07-29T05:37:41;99462.00;;;20.43;nan
16664;BME280;8445;51.270;9.434;2022-07-29T05:40:08;99455.59;;;20.44;nan
16664;BME280;8445;51.270;9.434;2022-07-29T05:42:34;99456.44;;;20.44;nan
16664;BME280;8445;51.270;9.434;2022-07-29T05:45:01;99460.47;;;20.40;nan
16664;BME280;8445;51.270;9.434;2022-07-29T05:47:27;99461.38;;;20.33;nan
16664;BME280;8445;51.270;9.434;2022-07-29T05:49:52;99466.28;;;20.29;nan
16664;BME280;8445;51.270;9.434;2022-07-29T05:52:20;99461.38;;;20.33;nan
16664;BME280;8445;51.270;9.434;2022-07-29T05:54:46;99457.22;;;20.30;nan
16664;BME280;8445;51.270;9.434;2022-07-29T05:57:21;99464.06;;;20.33;nan
16664;BME280;8445;51.270;9.434;2022-07-29T05:59:48;99470.47;;;20.32;nan
16664;BME280;8445;51.270;9.434;2022-07-29T06:02:14;99471.28;;;20.32;nan
16664;BME280;8445;51.270;9.434;2022-07-29T06:04:49;99475.22;;;20.44;nan
16664;BME280;8445;51.270;9.434;2022-07-29T06:07:17;99470.00;;;20.51;nan
16664;BME280;8445;51.270;9.434;2022-07-29T06:09:43;99467.25;;;20.59;nan
16664;BME280;8445;51.270;9.434;2022-07-29T06:12:09;99471.53;;;20.69;nan
16664;BME280;8445;51.270;9.434;2022-07-29T06:14:35;99461.25;;;20.72;nan
16664;BME280;8445;51.270;9.434;2022-07-29T06:17:01;99465.25;;;20.77;nan
16664;BME280;8445;51.270;9.434;2022-07-29T06:19:27;99472.72;;;20.90;nan
16664;BME280;8445;51.270;9.434;2022-07-29T06:21:53;99473.84;;;20.95;nan
16664;BME280;8445;51.270;9.434;2022-07-29T06:24:19;99475.56;;;21.11;nan
16664;BME280;8445;51.270;9.434;2022-07-29T06:26:45;99479.81;;;21.21;nan
16664;BME280;8445;51.270;9.434;2022-07-29T06:29:11;99485.47;;;21.26;nan
16664;BME280;8445;51.270;9.434;2022-07-29T06:31:39;99492.25;;;21.22;nan
16664;BME280;8445;51.270;9.434;2022-07-29T06:34:05;99491.44;;;21.21;nan
16664;BME280;8445;51.270;9.434;2022-07-29T06:36:35;99497.63;;;21.22;nan
16664;BME280;8445;51.270;9.434;2022-07-29T06:39:07;99500.97;;;21.24;nan
16664;BME280;8445;51.270;9.434;2022-07-29T06:41:33;99499.97;;;21.25;nan
16664;BME280;8445;51.270;9.434;2022-07-29T06:44:08;99498.13;;;21.25;nan
16664;BME280;8445;51.270;9.434;2022-07-29T06:46:34;99514.72;;;21.29;nan
16664;BME280;8445;51.270;9.434;2022-07-29T06:49:00;99511.84;;;21.30;nan
16664;BME280;8445;51.270;9.434;2022-07-29T06:51:27;99511.13;;;21.37;nan
16664;BME280;8445;51.270;9.434;2022-07-29T06:53:53;99504.16;;;21.42;nan
16664;BME280;8445;51.270;9.434;2022-07-29T06:56:19;99518.19;;;21.53;nan
16664;BME280;8445;51.270;9.434;2022-07-29T06:58:45;99520.06;;;21.67;nan
16664;BME280;8445;51.270;9.434;2022-07-29T07:01:11;99518.69;;;21.71;nan
16664;BME280;8445;51.270;9.434;2022-07-29T07:03:36;99524.34;;;21.76;nan
16664;BME280;8445;51.270;9.434;2022-07-29T07:06:02;99515.69;;;21.81;nan
16664;BME280;8445;51.270;9.434;2022-07-29T07:08:28;99527.94;;;21.84;nan
16664;BME280;8445;51.270;9.434;2022-07-29T07:10:55;99530.09;;;21.88;nan
16664;BME280;8445;51.270;9.434;2022-07-29T07:13:22;99530.53;;;21.92;nan
16664;BME280;8445;51.270;9.434;2022-07-29T07:15:48;99532.22;;;21.93;nan
16664;BME280;8445;51.270;9.434;2022-07-29T07:18:16;99540.00;;;21.88;nan
16664;BME280;8445;51.270;9.434;2022-07-29T07:20:43;99541.59;;;21.82;nan
16664;BME280;8445;51.270;9.434;2022-07-29T07:23:09;99535.38;;;21.82;nan
16664;BME280;8445;51.270;9.434;2022-07-29T07:25:35;99535.28;;;21.75;nan
16664;BME280;8445;51.270;9.434;2022-07-29T07:28:02;99543.94;;;21.70;nan
16664;BME280;8445;51.270;9.434;2022-07-29T07:30:28;99537.06;;;21.68;nan
16664;BME280;8445;51.270;9.434;2022-07-29T07:32:54;99535.06;;;21.61;nan
16664;BME280;8445;51.270;9.434;2022-07-29T07:35:21;99531.44;;;21.54;nan
16664;BME280;8445;51.270;9.434;2022-07-29T07:37:47;99533.69;;;21.51;nan
16664;BME280;8445;51.270;9.434;2022-07-29T07:40:14;99532.38;;;21.46;nan
16664;BME280;8445;51.270;9.434;2022-07-29T07:42:41;99519.47;;;21.42;nan
16664;BME280;8445;51.270;9.434;2022-07-29T07:45:08;99525.22;;;21.39;nan
16664;BME280;8445;51.270;9.434;2022-07-29T07:47:38;99529.19;;;21.28;nan
16664;BME280;8445;51.270;9.434;2022-07-29T07:50:09;99519.81;;;21.24;nan
16664;BME280;8445;51.270;9.434;2022-07-29T07:52:50;99501.81;;;21.24;nan
16664;BME280;8445;51.270;9.434;2022-07-29T07:55:17;99500.78;;;21.10;nan
16664;BME280;8445;51.270;9.434;2022-07-29T07:57:44;99498.16;;;21.02;nan
16664;BME280;8445;51.270;9.434;2022-07-29T08:00:14;99495.41;;;20.64;nan
16664;BME280;8445;51.270;9.434;2022-07-29T08:02:40;99493.59;;;20.09;nan
16664;BME280;8445;51.270;9.434;2022-07-29T08:05:09;99491.22;;;19.66;nan
16664;BME280;8445;51.270;9.434;2022-07-29T08:07:36;99494.97;;;19.49;nan
16664;BME280;8445;51.270;9.434;2022-07-29T08:10:02;99500.50;;;19.47;nan
16664;BME280;8445;51.270;9.434;2022-07-29T08:12:29;99497.47;;;19.59;nan
16664;BME280;8445;51.270;9.434;2022-07-29T08:14:54;99481.09;;;19.85;nan
16664;BME280;8445;51.270;9.434;2022-07-29T08:17:20;99475.38;;;19.88;nan
16664;BME280;8445;51.270;9.434;2022-07-29T08:19:46;99476.09;;;19.74;nan
16664;BME280;8445;51.270;9.434;2022-07-29T08:22:14;99467.06;;;19.66;nan
16664;BME280;8445;51.270;9.434;2022-07-29T08:24:40;99472.75;;;19.72;nan
16664;BME280;8445;51.270;9.434;2022-07-29T08:27:13;99465.41;;;19.65;nan
16664;BME280;8445;51.270;9.434;2022-07-29T08:29:39;99464.09;;;19.53;nan
16664;BME280;8445;51.270;9.434;2022-07-29T08:32:06;99458.75;;;19.45;nan
16664;BME280;8445;51.270;9.434;2022-07-29T08:34:32;99448.44;;;19.25;nan
16664;BME280;8445;51.270;9.434;2022-07-29T08:36:58;99462.19;;;19.14;nan
16664;BME280;8445;51.270;9.434;2022-07-29T08:39:24;99469.25;;;19.15;nan
16664;BME280;8445;51.270;9.434;2022-07-29T08:41:51;99471.91;;;19.23;nan
16664;BME280;8445;51.270;9.434;2022-07-29T08:44:19;99479.28;;;19.21;nan
16664;BME280;8445;51.270;9.434;2022-07-29T08:46:48;99475.75;;;19.29;nan
16664;BME280;8445;51.270;9.434;2022-07-29T08:49:16;99483.91;;;19.44;nan
16664;BME280;8445;51.270;9.434;2022-07-29T08:51:43;99471.13;;;19.62;nan
16664;BME280;8445;51.270;9.434;2022-07-29T08:54:10;99475.88;;;19.92;nan
16664;BME280;8445;51.270;9.434;2022-07-29T08:56:39;99470.94;;;20.35;nan
16664;BME280;8445;51.270;9.434;2022-07-29T08:59:09;99482.84;;;21.02;nan
16664;BME280;8445;51.270;9.434;2022-07-29T09:01:37;99482.38;;;21.67;nan
16664;BME280;8445;51.270;9.434;2022-07-29T09:04:10;99482.34;;;22.34;nan
16664;BME280;8445;51.270;9.434;2022-07-29T09:06:41;99481.78;;;22.82;nan
16664;BME280;8445;51.270;9.434;2022-07-29T09:09:08;99476.44;;;23.17;nan
16664;BME280;8445;51.270;9.434;2022-07-29T09:11:34;99476.06;;;23.56;nan
16664;BME280;8445;51.270;9.434;2022-07-29T09:14:01;99480.34;;;23.78;nan
16664;BME280;8445;51.270;9.434;2022-07-29T09:16:54;99488.38;;;24.00;nan
16664;BME280;8445;51.270;9.434;2022-07-29T09:19:28;99481.38;;;24.19;nan
16664;BME280;8445;51.270;9.434;2022-07-29T09:21:58;99473.53;;;24.38;nan
16664;BME280;8445;51.270;9.434;2022-07-29T09:24:46;99479.16;;;24.50;nan
16664;BME280;8445;51.270;9.434;2022-07-29T09:27:21;99477.88;;;24.46;nan
16664;BME280;8445;51.270;9.434;2022-07-29T09:29:56;99471.28;;;24.68;nan
16664;BME280;8445;51.270;9.434;2022-07-29T09:32:23;99469.84;;;24.73;nan
16664;BME280;8445;51.270;9.434;2022-07-29T09:34:49;99472.75;;;24.91;nan
16664;BME280;8445;51.270;9.434;2022-07-29T09:37:28;99463.59;;;24.92;nan
16664;BME280;8445;51.270;9.434;2022-07-29T09:39:54;99473.13;;;25.28;nan
16664;BME280;8445;51.270;9.434;2022-07-29T09:42:30;99470.38;;;25.42;nan
16664;BME280;8445;51.270;9.434;2022-07-29T09:44:58;99479.56;;;25.54;nan
16664;BME280;8445;51.270;9.434;2022-07-29T09:47:46;99474.28;;;25.66;nan
16664;BME280;8445;51.270;9.434;2022-07-29T09:50:13;99478.03;;;25.65;nan
16664;BME280;8445;51.270;9.434;2022-07-29T09:52:51;99473.94;;;25.56;nan
16664;BME280;8445;51.270;9.434;2022-07-29T09:55:19;99471.84;;;25.38;nan
16664;BME280;8445;51.270;9.434;2022-07-29T09:57:46;99465.22;;;25.20;nan
16664;BME280;8445;51.270;9.434;2022-07-29T10:00:19;99469.19;;;24.97;nan
16664;BME280;8445;51.270;9.434;2022-07-29T10:02:48;99464.22;;;24.74;nan
16664;BME280;8445;51.270;9.434;2022-07-29T10:05:27;99460.66;;;24.60;nan
16664;BME280;8445;51.270;9.434;2022-07-29T10:07:57;99464.38;;;24.52;nan
16664;BME280;8445;51.270;9.434;2022-07-29T10:10:27;99456.09;;;24.74;nan
16664;BME280;8445;51.270;9.434;2022-07-29T10:13:10;99449.66;;;24.89;nan
16664;BME280;8445;51.270;9.434;2022-07-29T10:15:41;99457.75;;;24.95;nan
16664;BME280;8445;51.270;9.434;2022-07-29T10:18:13;99457.34;;;24.98;nan
16664;BME280;8445;51.270;9.434;2022-07-29T10:20:40;99457.16;;;24.86;nan
16664;BME280;8445;51.270;9.434;2022-07-29T10:23:06;99453.38;;;24.94;nan
16664;BME280;8445;51.270;9.434;2022-07-29T10:25:32;99452.31;;;25.15;nan
16664;BME280;8445;51.270;9.434;2022-07-29T10:27:58;99448.09;;;25.40;nan
16664;BME280;8445;51.270;9.434;2022-07-29T10:30:26;99442.63;;;25.67;nan
16664;BME280;8445;51.270;9.434;2022-07-29T10:44:43;99446.97;;;27.47;nan
16664;BME280;8445;51.270;9.434;2022-07-29T10:50:03;99445.44;;;27.88;nan
16664;BME280;8445;51.270;9.434;2022-07-29T10:55:38;99441.81;;;28.13;nan
16664;BME280;8445;51.270;9.434;2022-07-29T10:58:28;99446.16;;;28.57;nan
16664;BME280;8445;51.270;9.434;2022-07-29T11:00:54;99443.44;;;28.68;nan
16664;BME280;8445;51.270;9.434;2022-07-29T11:03:47;99430.38;;;28.35;nan
16664;BME280;8445;51.270;9.434;2022-07-29T11:06:13;99439.50;;;28.10;nan
16664;BME280;8445;51.270;9.434;2022-07-29T11:08:40;99440.47;;;27.85;nan
16664;BME280;8445;51.270;9.434;2022-07-29T11:13:45;99433.56;;;27.52;nan
16664;BME280;8445;51.270;9.434;2022-07-29T11:16:12;99443.03;;;27.80;nan
16664;BME280;8445;51.270;9.434;2022-07-29T11:21:44;99436.25;;;28.20;nan
16664;BME280;8445;51.270;9.434;2022-07-29T11:24:22;99437.53;;;28.60;nan
16664;BME280;8445;51.270;9.434;2022-07-29T11:27:17;99429.31;;;28.90;nan
16664;BME280;8445;51.270;9.434;2022-07-29T11:29:54;99430.00;;;28.85;nan
16664;BME280;8445;51.270;9.434;2022-07-29T11:32:25;99416.00;;;28.70;nan
16664;BME280;8445;51.270;9.434;2022-07-29T11:35:14;99421.59;;;28.75;nan
16664;BME280;8445;51.270;9.434;2022-07-29T11:37:40;99424.09;;;28.77;nan
16664;BME280;8445;51.270;9.434;2022-07-29T11:45:21;99412.81;;;28.73;nan
16664;BME280;8445;51.270;9.434;2022-07-29T11:47:56;99403.34;;;28.64;nan
16664;BME280;8445;51.270;9.434;2022-07-29T11:50:39;99407.38;;;28.73;nan
16664;BME280;8445;51.270;9.434;2022-07-29T11:53:13;99399.44;;;28.60;nan
16664;BME280;8445;51.270;9.434;2022-07-29T11:55:41;99407.38;;;28.73;nan
16664;BME280;8445;51.270;9.434;2022-07-29T11:58:08;99401.22;;;28.90;nan
16664;BME280;8445;51.270;9.434;2022-07-29T12:00:38;99404.66;;;29.21;nan
16664;BME280;8445;51.270;9.434;2022-07-29T12:03:28;99398.72;;;29.77;nan
16664;BME280;8445;51.270;9.434;2022-07-29T12:05:59;99400.63;;;30.05;nan
16664;BME280;8445;51.270;9.434;2022-07-29T12:08:25;99399.00;;;30.21;nan
16664;BME280;8445;51.270;9.434;2022-07-29T12:10:53;99391.56;;;30.51;nan
16664;BME280;8445;51.270;9.434;2022-07-29T12:13:20;99395.00;;;30.58;nan
16664;BME280;8445;51.270;9.434;2022-07-29T12:15:57;99386.63;;;30.65;nan
16664;BME280;8445;51.270;9.434;2022-07-29T12:18:24;99388.94;;;30.73;nan
16664;BME280;8445;51.270;9.434;2022-07-29T12:21:01;99382.28;;;31.03;nan
16664;BME280;8445;51.270;9.434;2022-07-29T12:23:34;99381.59;;;31.13;nan
16664;BME280;8445;51.270;9.434;2022-07-29T12:26:04;99371.16;;;31.10;nan
16664;BME280;8445;51.270;9.434;2022-07-29T12:28:39;99371.97;;;30.71;nan
16664;BME280;8445;51.270;9.434;2022-07-29T12:31:05;99374.41;;;30.67;nan
16664;BME280;8445;51.270;9.434;2022-07-29T12:33:31;99371.09;;;30.65;nan
16664;BME280;8445;51.270;9.434;2022-07-29T12:36:02;99365.81;;;30.58;nan
16664;BME280;8445;51.270;9.434;2022-07-29T12:38:29;99368.94;;;30.50;nan
16664;BME280;8445;51.270;9.434;2022-07-29T12:40:55;99364.28;;;30.51;nan
16664;BME280;8445;51.270;9.434;2022-07-29T12:43:23;99364.28;;;30.34;nan
16664;BME280;8445;51.270;9.434;2022-07-29T12:45:56;99350.41;;;30.18;nan
16664;BME280;8445;51.270;9.434;2022-07-29T12:48:41;99344.53;;;30.26;nan
16664;BME280;8445;51.270;9.434;2022-07-29T12:51:09;99336.00;;;30.40;nan
16664;BME280;8445;51.270;9.434;2022-07-29T12:53:38;99342.78;;;30.54;nan
16664;BME280;8445;51.270;9.434;2022-07-29T12:56:05;99335.91;;;30.69;nan
16664;BME280;8445;51.270;9.434;2022-07-29T12:58:39;99336.56;;;30.76;nan
16664;BME280;8445;51.270;9.434;2022-07-29T13:01:16;99342.09;;;30.81;nan
16664;BME280;8445;51.270;9.434;2022-07-29T13:03:56;99330.66;;;31.24;nan
16664;BME280;8445;51.270;9.434;2022-07-29T13:09:19;99325.59;;;31.60;nan
16664;BME280;8445;51.270;9.434;2022-07-29T13:11:53;99324.75;;;31.59;nan
16664;BME280;8445;51.270;9.434;2022-07-29T13:14:34;99321.41;;;31.74;nan
16664;BME280;8445;51.270;9.434;2022-07-29T13:19:38;99310.13;;;31.98;nan
16664;BME280;8445;51.270;9.434;2022-07-29T13:22:10;99317.47;;;32.25;nan
16664;BME280;8445;51.270;9.434;2022-07-29T13:25:05;99320.63;;;32.44;nan
16664;BME280;8445;51.270;9.434;2022-07-29T13:27:37;99314.13;;;32.56;nan
16664;BME280;8445;51.270;9.434;2022-07-29T13:30:08;99318.16;;;32.48;nan
16664;BME280;8445;51.270;9.434;2022-07-29T13:32:35;99311.75;;;32.70;nan
16664;BME280;8445;51.270;9.434;2022-07-29T13:35:07;99312.78;;;33.06;nan
16664;BME280;8445;51.270;9.434;2022-07-29T13:37:35;99309.94;;;33.49;nan
16664;BME280;8445;51.270;9.434;2022-07-29T13:40:08;99302.84;;;33.90;nan
16664;BME280;8445;51.270;9.434;2022-07-29T13:42:37;99313.84;;;34.05;nan
16664;BME280;8445;51.270;9.434;2022-07-29T13:45:05;99312.19;;;33.99;nan
16664;BME280;8445;51.270;9.434;2022-07-29T13:47:32;99310.50;;;33.77;nan
16664;BME280;8445;51.270;9.434;2022-07-29T13:49:59;99309.44;;;34.20;nan
16664;BME280;8445;51.270;9.434;2022-07-29T13:52:27;99304.44;;;34.73;nan
16664;BME280;8445;51.270;9.434;2022-07-29T13:54:59;99307.97;;;34.84;nan
16664;BME280;8445;51.270;9.434;2022-07-29T13:57:28;99314.28;;;34.85;nan
16664;BME280;8445;51.270;9.434;2022-07-29T13:59:54;99312.06;;;34.92;nan
16664;BME280;8445;51.270;9.434;2022-07-29T14:02:21;99317.00;;;35.00;nan
16664;BME280;8445;51.270;9.434;2022-07-29T14:04:49;99314.81;;;34.97;nan
16664;BME280;8445;51.270;9.434;2022-07-29T14:07:16;99312.06;;;34.87;nan
16664;BME280;8445;51.270;9.434;2022-07-29T14:09:42;99308.81;;;34.74;nan
16664;BME280;8445;51.270;9.434;2022-07-29T14:12:08;99309.97;;;34.63;nan
16664;BME280;8445;51.270;9.434;2022-07-29T14:14:34;99309.41;;;34.40;nan
16664;BME280;8445;51.270;9.434;2022-07-29T14:17:02;99314.38;;;34.18;nan
16664;BME280;8445;51.270;9.434;2022-07-29T14:19:28;99305.03;;;33.88;nan
16664;BME280;8445;51.270;9.434;2022-07-29T14:21:54;99309.94;;;33.70;nan
16664;BME280;8445;51.270;9.434;2022-07-29T14:24:20;99300.91;;;33.64;nan
16664;BME280;8445;51.270;9.434;2022-07-29T14:26:46;99304.47;;;33.70;nan
16664;BME280;8445;51.270;9.434;2022-07-29T14:29:12;99306.66;;;33.68;nan
16664;BME280;8445;51.270;9.434;2022-07-29T14:31:38;99308.31;;;33.74;nan
16664;BME280;8445;51.270;9.434;2022-07-29T14:34:03;99312.75;;;33.96;nan